sensor_id;sensor_type;location;lat;lon;timestamp;pressure;altitude;pressure_sealevel;temperature;humidity
49044;BME280;34860;48.066;14.124;2023-03-20T00:00:04;96706.00;;;12.56;61.21
49044;BME280;34860;48.066;14.124;2023-03-20T00:02:56;96709.72;;;12.52;61.16
49044;BME280;34860;48.066;14.124;2023-03-20T00:05:46;96705.34;;;12.51;61.09
49044;BME280;34860;48.066;14.124;2023-03-20T00:08:36;96709.81;;;12.49;61.19
49044;BME280;34860;48.066;14.124;2023-03-20T00:11:28;96705.13;;;12.46;61.05
49044;BME280;34860;48.066;14.124;2023-03-20T00:14:21;96712.28;;;12.47;61.15
49044;BME280;34860;48.066;14.124;2023-03-20T00:17:16;96709.16;;;12.45;61.04
49044;BME280;34860;48.066;14.124;2023-03-20T00:20:13;96707.28;;;12.42;61.17
49044;BME280;34860;48.066;14.124;2023-03-20T00:23:04;96707.72;;;12.40;61.09
49044;BME280;34860;48.066;14.124;2023-03-20T00:25:53;96697.03;;;12.39;61.00
49044;BME280;34860;48.066;14.124;2023-03-20T00:28:47;96701.81;;;12.38;61.08
49044;BME280;34860;48.066;14.124;2023-03-20T00:31:36;96704.25;;;12.36;61.09
49044;BME280;34860;48.066;14.124;2023-03-20T00:34:27;96701.16;;;12.34;60.98
49044;BME280;34860;48.066;14.124;2023-03-20T00:37:20;96693.56;;;12.34;60.93
49044;BME280;34860;48.066;14.124;2023-03-20T00:40:12;96700.81;;;12.32;61.05
49044;BME280;34860;48.066;14.124;2023-03-20T00:43:03;96704.06;;;12.30;60.98
49044;BME280;34860;48.066;14.124;2023-03-20T00:45:52;96707.28;;;12.29;60.91
49044;BME280;34860;48.066;14.124;2023-03-20T00:48:40;96699.38;;;12.27;60.88
49044;BME280;34860;48.066;14.124;2023-03-20T00:51:29;96689.91;;;12.25;60.85
49044;BME280;34860;48.066;14.124;2023-03-20T00:54:19;96697.50;;;12.24;60.93
49044;BME280;34860;48.066;14.124;2023-03-20T00:57:13;96688.81;;;12.22;60.96
49044;BME280;34860;48.066;14.124;2023-03-20T01:00:06;96697.16;;;12.22;61.17
49044;BME280;34860;48.066;14.124;2023-03-20T01:02:56;96698.81;;;12.20;61.27
49044;BME280;34860;48.066;14.124;2023-03-20T01:05:45;96694.91;;;12.17;61.00
49044;BME280;34860;48.066;14.124;2023-03-20T01:08:34;96694.59;;;12.15;60.96
49044;BME280;34860;48.066;14.124;2023-03-20T01:11:25;96695.03;;;12.13;61.02
49044;BME280;34860;48.066;14.124;2023-03-20T01:14:14;96691.56;;;12.09;61.15
49044;BME280;34860;48.066;14.124;2023-03-20T01:17:09;96691.69;;;12.06;61.01
49044;BME280;34860;48.066;14.124;2023-03-20T01:20:09;96695.38;;;12.03;61.01
49044;BME280;34860;48.066;14.124;2023-03-20T01:23:02;96693.47;;;11.99;60.92
49044;BME280;34860;48.066;14.124;2023-03-20T01:25:51;96698.41;;;11.95;60.95
49044;BME280;34860;48.066;14.124;2023-03-20T01:28:41;96703.97;;;11.95;60.88
49044;BME280;34860;48.066;14.124;2023-03-20T01:31:30;96704.84;;;11.92;61.02
49044;BME280;34860;48.066;14.124;2023-03-20T01:34:19;96708.94;;;11.88;61.04
49044;BME280;34860;48.066;14.124;2023-03-20T01:37:13;96707.47;;;11.83;61.00
49044;BME280;34860;48.066;14.124;2023-03-20T01:40:07;96712.38;;;11.79;61.04
49044;BME280;34860;48.066;14.124;2023-03-20T01:43:00;96708.94;;;11.75;61.12
49044;BME280;34860;48.066;14.124;2023-03-20T01:45:59;96707.16;;;11.68;61.23
49044;BME280;34860;48.066;14.124;2023-03-20T01:49:00;96710.00;;;11.64;61.33
49044;BME280;34860;48.066;14.124;2023-03-20T01:51:52;96706.56;;;11.60;61.17
49044;BME280;34860;48.066;14.124;2023-03-20T01:54:44;96710.69;;;11.56;61.29
49044;BME280;34860;48.066;14.124;2023-03-20T01:57:33;96709.56;;;11.53;61.23
49044;BME280;34860;48.066;14.124;2023-03-20T02:00:24;96715.56;;;11.52;61.06
49044;BME280;34860;48.066;14.124;2023-03-20T02:03:15;96722.00;;;11.49;61.34
49044;BME280;34860;48.066;14.124;2023-03-20T02:06:25;96714.66;;;11.42;61.38
49044;BME280;34860;48.066;14.124;2023-03-20T02:09:26;96707.97;;;11.39;61.39
49044;BME280;34860;48.066;14.124;2023-03-20T02:12:18;96715.53;;;11.39;61.45
49044;BME280;34860;48.066;14.124;2023-03-20T02:15:10;96708.06;;;11.36;61.39
49044;BME280;34860;48.066;14.124;2023-03-20T02:18:33;96712.53;;;11.33;61.29
49044;BME280;34860;48.066;14.124;2023-03-20T02:22:04;96715.75;;;11.32;61.51
49044;BME280;34860;48.066;14.124;2023-03-20T02:25:14;96714.72;;;11.25;61.47
49044;BME280;34860;48.066;14.124;2023-03-20T02:28:42;96723.50;;;11.24;61.47
49044;BME280;34860;48.066;14.124;2023-03-20T02:31:58;96722.38;;;11.21;61.61
49044;BME280;34860;48.066;14.124;2023-03-20T02:35:09;96722.81;;;11.20;61.46
49044;BME280;34860;48.066;14.124;2023-03-20T02:38:26;96710.16;;;11.19;61.49
49044;BME280;34860;48.066;14.124;2023-03-20T02:41:23;96723.25;;;11.18;61.47
49044;BME280;34860;48.066;14.124;2023-03-20T02:44:20;96722.03;;;11.19;61.37
49044;BME280;34860;48.066;14.124;2023-03-20T02:47:21;96717.25;;;11.20;61.54
49044;BME280;34860;48.066;14.124;2023-03-20T02:50:16;96725.97;;;11.22;61.43
49044;BME280;34860;48.066;14.124;2023-03-20T02:53:16;96718.06;;;11.20;61.62
49044;BME280;34860;48.066;14.124;2023-03-20T02:56:11;96720.03;;;11.20;61.38
49044;BME280;34860;48.066;14.124;2023-03-20T02:59:15;96728.81;;;11.18;61.41
49044;BME280;34860;48.066;14.124;2023-03-20T03:02:08;96738.50;;;11.14;61.42
49044;BME280;34860;48.066;14.124;2023-03-20T03:05:03;96735.38;;;11.12;61.45
49044;BME280;34860;48.066;14.124;2023-03-20T03:07:56;96733.91;;;11.07;61.58
49044;BME280;34860;48.066;14.124;2023-03-20T03:10:56;96741.91;;;11.05;61.51
49044;BME280;34860;48.066;14.124;2023-03-20T03:13:50;96740.44;;;11.00;61.57
49044;BME280;34860;48.066;14.124;2023-03-20T03:16:40;96734.97;;;10.97;61.78
49044;BME280;34860;48.066;14.124;2023-03-20T03:19:31;96734.22;;;10.96;61.58
49044;BME280;34860;48.066;14.124;2023-03-20T03:22:21;96744.19;;;10.94;61.62
49044;BME280;34860;48.066;14.124;2023-03-20T03:25:14;96741.06;;;10.92;61.68
49044;BME280;34860;48.066;14.124;2023-03-20T03:28:04;96737.50;;;10.91;61.81
49044;BME280;34860;48.066;14.124;2023-03-20T03:30:57;96732.38;;;10.89;61.59
49044;BME280;34860;48.066;14.124;2023-03-20T03:33:49;96736.81;;;10.87;61.79
49044;BME280;34860;48.066;14.124;2023-03-20T03:36:47;96732.56;;;10.82;61.84
49044;BME280;34860;48.066;14.124;2023-03-20T03:39:42;96732.66;;;10.79;61.97
49044;BME280;34860;48.066;14.124;2023-03-20T03:42:37;96728.75;;;10.76;62.09
49044;BME280;34860;48.066;14.124;2023-03-20T03:45:30;96740.41;;;10.71;61.93
49044;BME280;34860;48.066;14.124;2023-03-20T03:48:26;96740.03;;;10.69;61.87
49044;BME280;34860;48.066;14.124;2023-03-20T03:51:22;96728.16;;;10.68;61.92
49044;BME280;34860;48.066;14.124;2023-03-20T03:54:24;96728.59;;;10.67;62.01
49044;BME280;34860;48.066;14.124;2023-03-20T03:57:40;96735.00;;;10.64;61.90
49044;BME280;34860;48.066;14.124;2023-03-20T04:00:34;96742.25;;;10.61;62.01
49044;BME280;34860;48.066;14.124;2023-03-20T04:03:30;96743.00;;;10.62;61.97
49044;BME280;34860;48.066;14.124;2023-03-20T04:06:21;96747.00;;;10.61;61.91
49044;BME280;34860;48.066;14.124;2023-03-20T04:09:11;96745.09;;;10.58;61.86
49044;BME280;34860;48.066;14.124;2023-03-20T04:11:59;96745.53;;;10.56;62.04
49044;BME280;34860;48.066;14.124;2023-03-20T04:14:51;96750.41;;;10.52;62.00
49044;BME280;34860;48.066;14.124;2023-03-20T04:17:43;96758.84;;;10.48;62.10
49044;BME280;34860;48.066;14.124;2023-03-20T04:20:35;96755.34;;;10.44;62.19
49044;BME280;34860;48.066;14.124;2023-03-20T04:23:25;96759.75;;;10.42;62.24
49044;BME280;34860;48.066;14.124;2023-03-20T04:26:15;96757.84;;;10.39;61.95
49044;BME280;34860;48.066;14.124;2023-03-20T04:29:05;96762.72;;;10.34;62.15
49044;BME280;34860;48.066;14.124;2023-03-20T04:32:10;96758.38;;;10.33;62.13
49044;BME280;34860;48.066;14.124;2023-03-20T04:35:16;96765.94;;;10.33;62.16
49044;BME280;34860;48.066;14.124;2023-03-20T04:38:12;96759.19;;;10.34;62.17
49044;BME280;34860;48.066;14.124;2023-03-20T04:41:02;96773.41;;;10.36;62.10
49044;BME280;34860;48.066;14.124;2023-03-20T04:43:51;96769.88;;;10.35;62.18
49044;BME280;34860;48.066;14.124;2023-03-20T04:46:40;96777.06;;;10.33;62.13
49044;BME280;34860;48.066;14.124;2023-03-20T04:49:34;96779.84;;;10.33;62.07
49044;BME280;34860;48.066;14.124;2023-03-20T04:52:25;96783.38;;;10.33;62.03
49044;BME280;34860;48.066;14.124;2023-03-20T04:55:16;96787.31;;;10.36;62.14
49044;BME280;34860;48.066;14.124;2023-03-20T04:58:06;96784.88;;;10.38;62.03
49044;BME280;34860;48.066;14.124;2023-03-20T05:00:57;96792.44;;;10.38;62.13
49044;BME280;34860;48.066;14.124;2023-03-20T05:03:46;96788.78;;;10.41;62.09
49044;BME280;34860;48.066;14.124;2023-03-20T05:06:34;96798.22;;;10.43;61.71
49044;BME280;34860;48.066;14.124;2023-03-20T05:09:23;96795.81;;;10.45;61.87
49044;BME280;34860;48.066;14.124;2023-03-20T05:12:13;96790.94;;;10.49;62.02
49044;BME280;34860;48.066;14.124;2023-03-20T05:15:25;96798.06;;;10.50;61.90
49044;BME280;34860;48.066;14.124;2023-03-20T05:18:32;96805.22;;;10.51;62.04
49044;BME280;34860;48.066;14.124;2023-03-20T05:21:34;96813.97;;;10.50;62.06
49044;BME280;34860;48.066;14.124;2023-03-20T05:24:44;96820.31;;;10.50;62.03
49044;BME280;34860;48.066;14.124;2023-03-20T05:27:49;96812.75;;;10.51;62.06
49044;BME280;34860;48.066;14.124;2023-03-20T05:30:56;96821.78;;;10.55;61.96
49044;BME280;34860;48.066;14.124;2023-03-20T05:34:03;96830.91;;;10.56;62.04
49044;BME280;34860;48.066;14.124;2023-03-20T05:37:23;96828.47;;;10.58;62.07
49044;BME280;34860;48.066;14.124;2023-03-20T05:40:31;96830.81;;;10.59;61.93
49044;BME280;34860;48.066;14.124;2023-03-20T05:43:44;96826.81;;;10.60;62.01
49044;BME280;34860;48.066;14.124;2023-03-20T05:46:51;96830.75;;;10.63;62.04
49044;BME280;34860;48.066;14.124;2023-03-20T05:49:58;96831.09;;;10.65;62.01
49044;BME280;34860;48.066;14.124;2023-03-20T05:53:11;96828.97;;;10.69;62.12
49044;BME280;34860;48.066;14.124;2023-03-20T05:56:29;96831.69;;;10.72;61.92
49044;BME280;34860;48.066;14.124;2023-03-20T05:59:48;96838.75;;;10.77;61.90
49044;BME280;34860;48.066;14.124;2023-03-20T06:03:03;96840.28;;;10.78;61.86
49044;BME280;34860;48.066;14.124;2023-03-20T06:06:10;96840.66;;;10.80;61.97
49044;BME280;34860;48.066;14.124;2023-03-20T06:08:59;96839.84;;;10.80;61.97
49044;BME280;34860;48.066;14.124;2023-03-20T06:11:48;96847.75;;;10.81;61.99
49044;BME280;34860;48.066;14.124;2023-03-20T06:14:37;96860.47;;;10.82;62.01
49044;BME280;34860;48.066;14.124;2023-03-20T06:17:29;96850.53;;;10.81;62.12
49044;BME280;34860;48.066;14.124;2023-03-20T06:20:22;96853.31;;;10.81;62.17
49044;BME280;34860;48.066;14.124;2023-03-20T06:23:12;96853.75;;;10.80;62.10
49044;BME280;34860;48.066;14.124;2023-03-20T06:26:00;96854.13;;;10.82;62.17
49044;BME280;34860;48.066;14.124;2023-03-20T06:29:01;96854.91;;;10.82;62.00
49044;BME280;34860;48.066;14.124;2023-03-20T06:31:51;96861.22;;;10.83;62.14
49044;BME280;34860;48.066;14.124;2023-03-20T06:34:49;96869.13;;;10.84;62.13
49044;BME280;34860;48.066;14.124;2023-03-20T06:37:37;96871.91;;;10.84;62.19
49044;BME280;34860;48.066;14.124;2023-03-20T06:40:31;96869.13;;;10.84;62.29
49044;BME280;34860;48.066;14.124;2023-03-20T06:43:21;96873.41;;;10.89;62.21
49044;BME280;34860;48.066;14.124;2023-03-20T06:46:12;96878.53;;;10.90;62.34
49044;BME280;34860;48.066;14.124;2023-03-20T06:49:00;96874.53;;;10.92;62.30
49044;BME280;34860;48.066;14.124;2023-03-20T06:51:51;96877.66;;;10.94;62.25
49044;BME280;34860;48.066;14.124;2023-03-20T06:54:43;96879.25;;;10.95;62.23
49044;BME280;34860;48.066;14.124;2023-03-20T06:57:33;96888.34;;;10.95;62.47
49044;BME280;34860;48.066;14.124;2023-03-20T07:00:21;96888.34;;;10.95;62.24
49044;BME280;34860;48.066;14.124;2023-03-20T07:03:10;96891.56;;;10.94;62.32
49044;BME280;34860;48.066;14.124;2023-03-20T07:05:59;96895.06;;;10.98;62.15
49044;BME280;34860;48.066;14.124;2023-03-20T07:08:50;96888.25;;;10.99;62.34
49044;BME280;34860;48.066;14.124;2023-03-20T07:11:40;96904.94;;;10.99;62.35
49044;BME280;34860;48.066;14.124;2023-03-20T07:14:29;96893.81;;;10.99;62.42
49044;BME280;34860;48.066;14.124;2023-03-20T07:17:22;96895.41;;;11.00;62.66
49044;BME280;34860;48.066;14.124;2023-03-20T07:20:15;96889.75;;;11.03;62.34
49044;BME280;34860;48.066;14.124;2023-03-20T07:23:05;96894.88;;;11.05;62.27
49044;BME280;34860;48.066;14.124;2023-03-20T07:25:56;96892.00;;;11.08;62.44
49044;BME280;34860;48.066;14.124;2023-03-20T07:28:46;96899.47;;;11.12;62.40
49044;BME280;34860;48.066;14.124;2023-03-20T07:31:39;96896.59;;;11.15;62.26
49044;BME280;34860;48.066;14.124;2023-03-20T07:34:32;96896.97;;;11.17;62.43
49044;BME280;34860;48.066;14.124;2023-03-20T07:37:21;96906.41;;;11.20;62.27
49044;BME280;34860;48.066;14.124;2023-03-20T07:40:20;96907.56;;;11.22;62.29
49044;BME280;34860;48.066;14.124;2023-03-20T07:43:16;96913.47;;;11.24;62.17
49044;BME280;34860;48.066;14.124;2023-03-20T07:46:37;96918.16;;;11.27;62.65
49044;BME280;34860;48.066;14.124;2023-03-20T07:49:27;96918.53;;;11.30;62.38
49044;BME280;34860;48.066;14.124;2023-03-20T07:52:17;96925.97;;;11.33;62.28
49044;BME280;34860;48.066;14.124;2023-03-20T07:55:06;96921.88;;;11.37;62.29
49044;BME280;34860;48.066;14.124;2023-03-20T07:57:55;96921.00;;;11.40;62.34
49044;BME280;34860;48.066;14.124;2023-03-20T08:00:46;96933.19;;;11.47;62.25
49044;BME280;34860;48.066;14.124;2023-03-20T08:03:34;96933.09;;;11.50;62.29
49044;BME280;34860;48.066;14.124;2023-03-20T08:06:25;96941.38;;;11.54;61.94
49044;BME280;34860;48.066;14.124;2023-03-20T08:09:13;96932.47;;;11.59;62.35
49044;BME280;34860;48.066;14.124;2023-03-20T08:12:02;96935.59;;;11.61;62.26
49044;BME280;34860;48.066;14.124;2023-03-20T08:14:52;96936.75;;;11.63;62.29
49044;BME280;34860;48.066;14.124;2023-03-20T08:17:44;96933.97;;;11.63;62.26
49044;BME280;34860;48.066;14.124;2023-03-20T08:20:33;96937.41;;;11.68;62.33
49044;BME280;34860;48.066;14.124;2023-03-20T08:23:24;96938.88;;;11.72;62.10
49044;BME280;34860;48.066;14.124;2023-03-20T08:26:12;96940.03;;;11.75;62.30
49044;BME280;34860;48.066;14.124;2023-03-20T08:29:01;96941.06;;;11.81;62.19
49044;BME280;34860;48.066;14.124;2023-03-20T08:31:50;96944.88;;;11.87;62.26
49044;BME280;34860;48.066;14.124;2023-03-20T08:34:42;96943.13;;;11.93;62.17
49044;BME280;34860;48.066;14.124;2023-03-20T08:37:30;96944.53;;;12.02;62.04
49044;BME280;34860;48.066;14.124;2023-03-20T08:40:18;96943.97;;;12.07;62.11
49044;BME280;34860;48.066;14.124;2023-03-20T08:43:07;96950.22;;;12.11;62.02
49044;BME280;34860;48.066;14.124;2023-03-20T08:45:55;96952.38;;;12.20;62.06
49044;BME280;34860;48.066;14.124;2023-03-20T08:48:43;96961.66;;;12.29;62.15
49044;BME280;34860;48.066;14.124;2023-03-20T08:51:34;96964.34;;;12.33;62.01
49044;BME280;34860;48.066;14.124;2023-03-20T08:54:24;96965.13;;;12.33;61.94
49044;BME280;34860;48.066;14.124;2023-03-20T08:57:12;96963.44;;;12.36;62.14
49044;BME280;34860;48.066;14.124;2023-03-20T09:00:01;96960.22;;;12.38;62.19
49044;BME280;34860;48.066;14.124;2023-03-20T09:02:52;96966.13;;;12.40;62.36
49044;BME280;34860;48.066;14.124;2023-03-20T09:05:42;96961.69;;;12.42;62.25
49044;BME280;34860;48.066;14.124;2023-03-20T09:08:33;96957.69;;;12.43;62.30
49044;BME280;34860;48.066;14.124;2023-03-20T09:11:24;96965.50;;;12.48;62.16
49044;BME280;34860;48.066;14.124;2023-03-20T09:14:13;96958.34;;;12.47;62.35
49044;BME280;34860;48.066;14.124;2023-03-20T09:17:04;96954.78;;;12.47;62.26
49044;BME280;34860;48.066;14.124;2023-03-20T09:19:53;96961.94;;;12.48;62.31
49044;BME280;34860;48.066;14.124;2023-03-20T09:22:42;96961.50;;;12.49;62.21
49044;BME280;34860;48.066;14.124;2023-03-20T09:25:34;96957.47;;;12.50;62.27
49044;BME280;34860;48.066;14.124;2023-03-20T09:28:22;96955.81;;;12.53;62.29
49044;BME280;34860;48.066;14.124;2023-03-20T09:31:11;96959.25;;;12.57;62.21
49044;BME280;34860;48.066;14.124;2023-03-20T09:34:00;96957.03;;;12.65;62.25
49044;BME280;34860;48.066;14.124;2023-03-20T09:36:50;96963.41;;;12.65;61.96
49044;BME280;34860;48.066;14.124;2023-03-20T09:39:40;96960.19;;;12.67;62.17
49044;BME280;34860;48.066;14.124;2023-03-20T09:42:40;96962.88;;;12.70;61.97
49044;BME280;34860;48.066;14.124;2023-03-20T09:45:40;96960.72;;;12.75;62.16
49044;BME280;34860;48.066;14.124;2023-03-20T09:48:34;96967.78;;;12.79;62.08
49044;BME280;34860;48.066;14.124;2023-03-20T09:51:29;96969.34;;;12.80;62.09
49044;BME280;34860;48.066;14.124;2023-03-20T09:54:23;96972.56;;;12.79;62.16
49044;BME280;34860;48.066;14.124;2023-03-20T09:57:20;96952.72;;;12.77;62.23
49044;BME280;34860;48.066;14.124;2023-03-20T10:00:16;96966.75;;;12.73;62.05
49044;BME280;34860;48.066;14.124;2023-03-20T10:03:13;96959.28;;;12.70;62.40
49044;BME280;34860;48.066;14.124;2023-03-20T10:06:06;96963.31;;;12.69;62.45
49044;BME280;34860;48.066;14.124;2023-03-20T10:08:56;96960.06;;;12.70;62.51
49044;BME280;34860;48.066;14.124;2023-03-20T10:12:11;96961.97;;;12.74;62.32
49044;BME280;34860;48.066;14.124;2023-03-20T10:15:09;96958.38;;;12.73;62.19
49044;BME280;34860;48.066;14.124;2023-03-20T10:18:11;96955.97;;;12.75;62.32
49044;BME280;34860;48.066;14.124;2023-03-20T10:21:12;96961.09;;;12.77;62.23
49044;BME280;34860;48.066;14.124;2023-03-20T10:24:05;96946.91;;;12.84;62.24
49044;BME280;34860;48.066;14.124;2023-03-20T10:27:05;96953.19;;;12.88;62.12
49044;BME280;34860;48.066;14.124;2023-03-20T10:30:06;96946.25;;;12.93;62.00
49044;BME280;34860;48.066;14.124;2023-03-20T10:33:11;96950.72;;;13.03;61.98
49044;BME280;34860;48.066;14.124;2023-03-20T10:36:13;96943.22;;;13.13;62.03
49044;BME280;34860;48.066;14.124;2023-03-20T10:39:08;96943.22;;;13.25;61.76
49044;BME280;34860;48.066;14.124;2023-03-20T10:42:02;96945.56;;;13.40;61.62
49044;BME280;34860;48.066;14.124;2023-03-20T10:44:59;96930.69;;;13.56;61.56
49044;BME280;34860;48.066;14.124;2023-03-20T10:47:50;96936.47;;;13.74;61.46
49044;BME280;34860;48.066;14.124;2023-03-20T10:50:44;96938.44;;;13.87;61.42
49044;BME280;34860;48.066;14.124;2023-03-20T10:53:39;96934.16;;;13.95;61.33
49044;BME280;34860;48.066;14.124;2023-03-20T10:56:35;96938.72;;;14.02;61.28
49044;BME280;34860;48.066;14.124;2023-03-20T10:59:26;96934.88;;;14.08;61.44
49044;BME280;34860;48.066;14.124;2023-03-20T11:02:19;96929.50;;;14.14;61.46
49044;BME280;34860;48.066;14.124;2023-03-20T11:05:20;96926.88;;;14.20;61.51
49044;BME280;34860;48.066;14.124;2023-03-20T11:08:13;96923.16;;;14.23;61.20
49044;BME280;34860;48.066;14.124;2023-03-20T11:11:03;96927.41;;;14.27;61.45
49044;BME280;34860;48.066;14.124;2023-03-20T11:13:54;96924.16;;;14.29;61.48
49044;BME280;34860;48.066;14.124;2023-03-20T11:16:46;96930.06;;;14.31;61.53
49044;BME280;34860;48.066;14.124;2023-03-20T11:19:37;96915.50;;;14.36;61.48
49044;BME280;34860;48.066;14.124;2023-03-20T11:22:27;96918.34;;;14.45;61.32
49044;BME280;34860;48.066;14.124;2023-03-20T11:25:27;96911.38;;;14.50;61.37
49044;BME280;34860;48.066;14.124;2023-03-20T11:28:31;96907.53;;;14.57;61.40
49044;BME280;34860;48.066;14.124;2023-03-20T11:31:24;96898.91;;;14.64;61.25
49044;BME280;34860;48.066;14.124;2023-03-20T11:34:22;96898.00;;;14.67;61.29
49044;BME280;34860;48.066;14.124;2023-03-20T11:37:21;96900.34;;;14.68;61.29
49044;BME280;34860;48.066;14.124;2023-03-20T11:40:15;96898.44;;;14.65;61.37
49044;BME280;34860;48.066;14.124;2023-03-20T11:43:11;96903.84;;;14.60;61.55
49044;BME280;34860;48.066;14.124;2023-03-20T11:46:00;96905.53;;;14.57;61.59
49044;BME280;34860;48.066;14.124;2023-03-20T11:49:05;96911.38;;;14.50;61.75
49044;BME280;34860;48.066;14.124;2023-03-20T11:51:59;96911.31;;;14.41;61.77
49044;BME280;34860;48.066;14.124;2023-03-20T11:54:54;96902.56;;;14.29;61.96
49044;BME280;34860;48.066;14.124;2023-03-20T11:57:43;96914.78;;;14.23;61.92
49044;BME280;34860;48.066;14.124;2023-03-20T12:00:37;96904.19;;;14.17;62.11
49044;BME280;34860;48.066;14.124;2023-03-20T12:03:42;96902.00;;;14.12;61.92
49044;BME280;34860;48.066;14.124;2023-03-20T12:06:41;96906.94;;;14.08;62.00
49044;BME280;34860;48.066;14.124;2023-03-20T12:09:39;96908.63;;;14.06;62.02
49044;BME280;34860;48.066;14.124;2023-03-20T12:12:35;96899.91;;;14.04;61.94
49044;BME280;34860;48.066;14.124;2023-03-20T12:15:29;96897.09;;;14.04;61.89
49044;BME280;34860;48.066;14.124;2023-03-20T12:18:25;96905.03;;;14.05;61.83
49044;BME280;34860;48.066;14.124;2023-03-20T12:21:22;96901.47;;;14.05;61.74
49044;BME280;34860;48.066;14.124;2023-03-20T12:24:16;96912.19;;;14.06;61.62
49044;BME280;34860;48.066;14.124;2023-03-20T12:27:16;96899.59;;;14.02;61.77
49044;BME280;34860;48.066;14.124;2023-03-20T12:30:12;96900.16;;;13.96;61.74
49044;BME280;34860;48.066;14.124;2023-03-20T12:33:10;96898.88;;;13.88;61.84
49044;BME280;34860;48.066;14.124;2023-03-20T12:36:02;96898.66;;;13.83;61.94
49044;BME280;34860;48.066;14.124;2023-03-20T12:38:52;96900.34;;;13.80;62.03
49044;BME280;34860;48.066;14.124;2023-03-20T12:41:48;96890.09;;;13.77;62.03
49044;BME280;34860;48.066;14.124;2023-03-20T12:44:47;96886.31;;;13.71;62.06
49044;BME280;34860;48.066;14.124;2023-03-20T12:47:48;96892.34;;;13.69;62.00
49044;BME280;34860;48.066;14.124;2023-03-20T12:50:40;96892.00;;;13.67;61.88
49044;BME280;34860;48.066;14.124;2023-03-20T12:53:52;96885.78;;;13.63;62.06
49044;BME280;34860;48.066;14.124;2023-03-20T12:56:55;96887.44;;;13.60;62.15
49044;BME280;34860;48.066;14.124;2023-03-20T13:00:02;96890.38;;;13.57;61.92
49044;BME280;34860;48.066;14.124;2023-03-20T13:03:09;96886.59;;;13.51;61.96
49044;BME280;34860;48.066;14.124;2023-03-20T13:06:09;96897.88;;;13.47;61.86
49044;BME280;34860;48.066;14.124;2023-03-20T13:09:36;96888.38;;;13.44;62.06
49044;BME280;34860;48.066;14.124;2023-03-20T13:12:36;96884.38;;;13.46;61.78
49044;BME280;34860;48.066;14.124;2023-03-20T13:15:35;96880.91;;;13.41;62.03
49044;BME280;34860;48.066;14.124;2023-03-20T13:18:42;96886.94;;;13.40;61.97
49044;BME280;34860;48.066;14.124;2023-03-20T13:21:38;96883.06;;;13.37;62.15
49044;BME280;34860;48.066;14.124;2023-03-20T13:24:37;96884.16;;;13.40;61.77
49044;BME280;34860;48.066;14.124;2023-03-20T13:27:33;96876.91;;;13.42;61.85
49044;BME280;34860;48.066;14.124;2023-03-20T13:30:30;96874.78;;;13.47;61.81
49044;BME280;34860;48.066;14.124;2023-03-20T13:33:35;96874.53;;;13.54;61.66
49044;BME280;34860;48.066;14.124;2023-03-20T13:36:33;96872.72;;;13.60;61.74
49044;BME280;34860;48.066;14.124;2023-03-20T13:39:29;96870.47;;;13.68;61.63
49044;BME280;34860;48.066;14.124;2023-03-20T13:42:28;96874.09;;;13.77;61.33
49044;BME280;34860;48.066;14.124;2023-03-20T13:45:28;96866.56;;;13.87;61.44
49044;BME280;34860;48.066;14.124;2023-03-20T13:48:28;96871.63;;;14.02;61.33
49044;BME280;34860;48.066;14.124;2023-03-20T13:51:25;96867.41;;;14.19;61.30
49044;BME280;34860;48.066;14.124;2023-03-20T13:54:38;96864.38;;;14.35;61.08
49044;BME280;34860;48.066;14.124;2023-03-20T13:57:44;96861.19;;;14.46;60.97
49044;BME280;34860;48.066;14.124;2023-03-20T14:00:39;96857.53;;;14.59;60.92
49044;BME280;34860;48.066;14.124;2023-03-20T14:03:32;96863.66;;;14.66;60.98
49044;BME280;34860;48.066;14.124;2023-03-20T14:06:52;96855.13;;;14.70;60.97
49044;BME280;34860;48.066;14.124;2023-03-20T14:09:41;96865.06;;;14.71;60.90
49044;BME280;34860;48.066;14.124;2023-03-20T14:12:31;96858.06;;;14.66;61.15
49044;BME280;34860;48.066;14.124;2023-03-20T14:15:21;96859.44;;;14.62;61.51
49044;BME280;34860;48.066;14.124;2023-03-20T14:18:16;96865.03;;;14.62;61.23
49044;BME280;34860;48.066;14.124;2023-03-20T14:21:10;96853.16;;;14.58;61.34
49044;BME280;34860;48.066;14.124;2023-03-20T14:24:02;96852.53;;;14.53;61.44
49044;BME280;34860;48.066;14.124;2023-03-20T14:26:54;96856.25;;;14.50;61.59
49044;BME280;34860;48.066;14.124;2023-03-20T14:29:45;96849.69;;;14.44;61.44
49044;BME280;34860;48.066;14.124;2023-03-20T14:32:35;96853.25;;;14.45;61.47
49044;BME280;34860;48.066;14.124;2023-03-20T14:35:42;96857.63;;;14.46;61.50
49044;BME280;34860;48.066;14.124;2023-03-20T14:38:34;96855.59;;;14.46;61.35
49044;BME280;34860;48.066;14.124;2023-03-20T14:41:28;96854.38;;;14.47;61.20
49044;BME280;34860;48.066;14.124;2023-03-20T14:44:29;96848.16;;;14.52;61.42
49044;BME280;34860;48.066;14.124;2023-03-20T14:47:29;96846.78;;;14.57;61.30
49044;BME280;34860;48.066;14.124;2023-03-20T14:50:28;96845.91;;;14.60;61.19
49044;BME280;34860;48.066;14.124;2023-03-20T14:53:19;96843.41;;;14.62;61.04
49044;BME280;34860;48.066;14.124;2023-03-20T14:56:09;96849.03;;;14.62;61.12
49044;BME280;34860;48.066;14.124;2023-03-20T14:59:01;96844.66;;;14.61;61.08
49044;BME280;34860;48.066;14.124;2023-03-20T15:01:56;96843.41;;;14.62;61.20
49044;BME280;34860;48.066;14.124;2023-03-20T15:04:46;96843.41;;;14.62;60.90
49044;BME280;34860;48.066;14.124;2023-03-20T15:07:37;96848.78;;;14.57;61.23
49044;BME280;34860;48.066;14.124;2023-03-20T15:10:27;96838.56;;;14.53;61.13
49044;BME280;34860;48.066;14.124;2023-03-20T15:13:17;96841.81;;;14.52;61.43
49044;BME280;34860;48.066;14.124;2023-03-20T15:16:08;96839.13;;;14.48;61.30